Flight Track Log - Related Links

Times and Time Zones

All times are in EDT time to prevent confusion due to time zone crossing. See the TAM3774 flight status page for this flight to view local times or setup timezone preferences in your user account.

Time Position Orientation Groundspeed Altitude Reporting Facility
EDT Latitude Longitude Course Direction KTS MPH feet Rate Location/Type
Thu 07:54:38 PM -23.6250 -46.6590 98° East  Level FlightAware ADS-B
Thu 07:57:42 PM -23.6240 -46.6600 318° Northwest 353 Level FlightAware ADS-B
Thu 07:58:04 PM -23.6230 -46.6600 360° North 525 Level FlightAware ADS-B
Thu 07:58:52 PM -23.6210 -46.6610 335° Northwest 558 Level FlightAware ADS-B
Thu 08:01:00 PM -23.5431 -46.8767 291° West  Level Estimated
Thu 08:02:00 PM -23.5065 -46.9777 292° West  Level Estimated
Thu 08:02:24 PM -23.6200 -46.6610 292° West  Level FlightAware ADS-B
Thu 08:03:17 PM -23.6210 -46.6600 138° Southeast 2,084 Level FlightAware ADS-B
Thu 08:03:59 PM -23.6490 -46.6430 151° Southeast 171 197 3,300 3,171 Climbing FlightAware ADS-B
Thu 08:04:27 PM -23.6720 -46.6520 200° South 219 252 3,700 1,174 Climbing FlightAware ADS-B
Thu 08:04:45 PM -23.6780 -46.6700 250° West 222 255 4,200 2,217 Climbing FlightAware ADS-B
Thu 08:05:13 PM -23.6740 -46.7010 278° West 215 247 5,400 2,182 Climbing FlightAware ADS-B
Thu 08:05:40 PM -23.6700 -46.7300 279° West 218 251 6,200 2,036 Climbing FlightAware ADS-B
Thu 08:06:09 PM -23.6650 -46.7620 280° West 219 252 7,300 1,585 Climbing FlightAware ADS-B
Thu 08:06:33 PM -23.6700 -46.7910 259° West 262 302 7,600 1,149 Climbing FlightAware ADS-B
Thu 08:06:56 PM -23.6800 -46.8200 249° West 287 330 8,200 1,800 Climbing FlightAware ADS-B
Thu 08:07:13 PM -23.6850 -46.8450 258° West 293 337 8,800 2,432 Climbing FlightAware ADS-B
Thu 08:07:33 PM -23.6780 -46.8710 286° West 287 330 9,700 2,118 Climbing FlightAware ADS-B
Thu 08:08:21 PM -23.6540 -46.9410 291° West 322 371 11,200 1,705 Climbing FlightAware ADS-B
Thu 08:09:01 PM -23.6320 -47.0050 291° West 352 405 12,200 2,071 Climbing FlightAware ADS-B
Thu 08:09:45 PM -23.6070 -47.0800 290° West 358 412 14,100 2,500 Climbing FlightAware ADS-B
Thu 08:10:25 PM -23.5850 -47.1470 290° West 362 417 15,700 1,895 Climbing FlightAware ADS-B
Thu 08:11:20 PM -23.5540 -47.2400 290° West 380 437 17,100 1,677 Climbing FlightAware ADS-B
Thu 08:11:58 PM -23.5290 -47.3130 290° West 388 447 18,300 1,846 Climbing FlightAware ADS-B
Thu 08:12:38 PM -23.5040 -47.3860 290° West 395 455 19,500 1,852 Climbing FlightAware ADS-B
Thu 08:13:19 PM -23.4800 -47.4640 289° West 399 459 20,800 1,765 Climbing FlightAware ADS-B
Thu 08:14:03 PM -23.4540 -47.5500 288° West 411 473 22,000 1,643 Climbing FlightAware ADS-B
Thu 08:14:43 PM -23.4300 -47.6300 288° West 417 480 23,100 1,765 Climbing FlightAware ADS-B
Thu 08:15:28 PM -23.4020 -47.7200 289° West 417 480 24,500 1,624 Climbing FlightAware ADS-B
Thu 08:16:08 PM -23.3780 -47.7990 288° West 421 484 25,400 1,267 Climbing FlightAware ADS-B
Thu 08:16:58 PM -23.3460 -47.9020 289° West 433 498 26,400 1,133 Climbing FlightAware ADS-B
Thu 08:17:38 PM -23.3200 -47.9850 289° West 441 507 27,100 1,059 Climbing FlightAware ADS-B
Thu 08:18:23 PM -23.2900 -48.0820 289° West 452 520 27,900 1,125 Climbing FlightAware ADS-B
Thu 08:18:58 PM -23.2660 -48.1570 289° West 455 524 28,600 960 Climbing FlightAware ADS-B
Thu 08:19:38 PM -23.2390 -48.2460 288° West 465 535 29,100 1,185 Climbing FlightAware ADS-B
Thu 08:20:19 PM -23.2110 -48.3330 289° West 460 529 30,200 1,773 Climbing FlightAware ADS-B
Thu 08:21:06 PM -23.1790 -48.4350 289° West 445 512 31,700 1,517 Climbing FlightAware ADS-B
Thu 08:21:46 PM -23.1520 -48.5220 289° West 449 517 32,400 1,286 Climbing FlightAware ADS-B
Thu 08:22:30 PM -23.1230 -48.6140 289° West 437 503 33,500 1,571 Climbing FlightAware ADS-B
Thu 08:23:10 PM -23.0980 -48.6930 289° West 428 493 34,600 1,135 Climbing FlightAware ADS-B
Thu 08:23:44 PM -23.0770 -48.7590 289° West 431 496 34,900 385 Climbing FlightAware ADS-B
Thu 08:24:28 PM -23.0460 -48.8570 289° West 442 509 35,100 439 Climbing FlightAware ADS-B
Thu 08:25:06 PM -23.0220 -48.9330 289° West 445 512 35,500 711 Climbing FlightAware ADS-B
Thu 08:25:44 PM -22.9950 -49.0170 289° West 445 512 36,000 732 Climbing FlightAware ADS-B
Thu 08:26:28 PM -22.9660 -49.1090 289° West 444 511 36,500 643 Climbing FlightAware ADS-B
Thu 08:27:08 PM -22.9390 -49.1920 289° West 444 511 36,900 643 Climbing FlightAware ADS-B
Thu 08:27:52 PM -22.9070 -49.2850 290° West 444 511 37,400 500 Climbing FlightAware ADS-B
Thu 08:28:32 PM -22.8790 -49.3700 290° West 446 513 37,600 357 Climbing FlightAware ADS-B
Thu 08:29:16 PM -22.8480 -49.4600 290° West 447 514 37,900 286 Climbing FlightAware ADS-B
Thu 08:29:56 PM -22.8200 -49.5460 289° West 447 514 38,000 72 Climbing FlightAware ADS-B
Thu 08:30:39 PM -22.7900 -49.6320 291° West 444 511 38,000  Level FlightAware ADS-B
Thu 08:31:20 PM -22.7620 -49.7160 290° West 443 510 38,000  Level FlightAware ADS-B
Thu 08:32:00 PM -22.7320 -49.8050 290° West 442 509 38,000  Level FlightAware ADS-B
Thu 08:32:44 PM -22.7020 -49.8950 290° West 442 509 38,000  Level FlightAware ADS-B
Thu 08:33:25 PM -22.6730 -49.9780 291° West 444 511 38,000  Level FlightAware ADS-B
Thu 08:34:10 PM -22.6410 -50.0740 290° West 444 511 38,000  Level FlightAware ADS-B
Thu 08:34:48 PM -22.6140 -50.1540 290° West 444 511 38,000  Level FlightAware ADS-B
Thu 08:35:34 PM -22.5810 -50.2490 291° West 442 509 38,000  Level FlightAware ADS-B
Thu 08:36:14 PM -22.5530 -50.3320 290° West 441 507 38,000  Level FlightAware ADS-B
Thu 08:36:55 PM -22.5240 -50.4140 291° West 440 506 38,000  Level FlightAware ADS-B
Thu 08:37:34 PM -22.4960 -50.4950 290° West 439 505 38,000  Level FlightAware ADS-B
Thu 08:38:14 PM -22.4680 -50.5780 290° West 438 504 38,000  Level FlightAware ADS-B
Thu 08:38:56 PM -22.4380 -50.6650 290° West 438 504 38,000  Level FlightAware ADS-B
Thu 08:39:32 PM -22.4130 -50.7370 291° West 437 503 38,000  Level FlightAware ADS-B
Thu 08:40:10 PM -22.3860 -50.8150 291° West 438 504 38,000  Level FlightAware ADS-B
Thu 08:40:50 PM -22.3570 -50.8980 291° West 438 504 38,000  Level FlightAware ADS-B
Thu 08:41:34 PM -22.3260 -50.9880 290° West 440 506 38,000  Level FlightAware ADS-B
Thu 08:42:18 PM -22.2940 -51.0800 291° West 442 509 38,000  Level FlightAware ADS-B
Thu 08:43:02 PM -22.2620 -51.1710 291° West 443 510 38,000  Level FlightAware ADS-B
Thu 08:43:42 PM -22.2340 -51.2500 291° West 444 511 38,000  Level FlightAware ADS-B
Thu 08:44:26 PM -22.2020 -51.3430 290° West 444 511 38,000  Level FlightAware ADS-B
Thu 08:44:58 PM -22.1780 -51.4100 291° West 446 513 38,000  Level FlightAware ADS-B
Thu 08:45:42 PM -22.1360 -51.4970 298° West 455 524 38,000  Level FlightAware ADS-B
Thu 08:46:22 PM -22.0950 -51.5780 299° West 455 524 38,000  Level FlightAware ADS-B
Thu 08:46:57 PM -22.0590 -51.6460 300° West 455 524 38,000  Level FlightAware ADS-B
Thu 08:47:40 PM -22.0150 -51.7330 299° West 455 524 38,000  Level FlightAware ADS-B
Thu 08:48:22 PM -21.9730 -51.8140 299° West 455 524 38,000  Level FlightAware ADS-B
Thu 08:49:06 PM -21.9270 -51.9030 299° West 455 524 38,000  Level FlightAware ADS-B
Thu 08:49:46 PM -21.8880 -51.9810 298° West 452 520 38,000  Level FlightAware ADS-B
Thu 08:50:29 PM -21.8520 -52.0700 294° West 448 516 38,000  Level FlightAware ADS-B
Thu 08:51:09 PM -21.8180 -52.1540 294° West 449 517 38,000  Level FlightAware ADS-B
Thu 08:51:45 PM -21.7870 -52.2270 295° West 450 518 38,000  Level FlightAware ADS-B
Thu 08:52:26 PM -21.7520 -52.3080 295° West 449 517 38,000  Level FlightAware ADS-B
Thu 08:53:11 PM -21.7120 -52.4030 294° West 447 514 38,000  Level FlightAware ADS-B
Thu 08:53:43 PM -21.6850 -52.4660 295° West 447 514 38,000  Level FlightAware ADS-B
Thu 08:54:22 PM -21.6520 -52.5450 294° West 446 513 38,000  Level FlightAware ADS-B
Thu 08:55:09 PM -21.6110 -52.6390 295° West 445 512 38,000  Level FlightAware ADS-B
Thu 08:55:49 PM -21.5770 -52.7200 294° West 443 510 38,000 -429 Level FlightAware ADS-B
Thu 08:56:33 PM -21.5390 -52.8080 295° West 443 510 37,400 -1,357 Descending FlightAware ADS-B
Thu 08:57:13 PM -21.5050 -52.8870 295° West 443 510 36,100 -2,214 Descending FlightAware ADS-B
Thu 08:57:57 PM -21.4680 -52.9740 295° West 438 504 34,300 -2,325 Descending FlightAware ADS-B
Thu 08:58:33 PM -21.4380 -53.0450 294° West 431 496 33,000 -2,132 Descending FlightAware ADS-B
Thu 08:59:13 PM -21.4040 -53.1230 295° West 423 487 31,600 -2,025 Descending FlightAware ADS-B
Thu 08:59:53 PM -21.3720 -53.1970 295° West 417 480 30,300 -1,404 Descending FlightAware ADS-B
Thu 09:00:47 PM -21.3320 -53.2910 295° West 412 474 29,400 -1,933 Descending FlightAware ADS-B
Thu 09:01:23 PM -21.3010 -53.3620 295° West 405 466 27,400 -2,625 Descending FlightAware ADS-B
Thu 09:02:07 PM -21.2660 -53.4420 295° West 395 455 25,900 -1,909 Descending FlightAware ADS-B
Thu 09:02:51 PM -21.2330 -53.5200 294° West 385 443 24,600 -1,786 Descending FlightAware ADS-B
Thu 09:03:31 PM -21.2030 -53.5890 295° West 376 433 23,400 -1,786 Descending FlightAware ADS-B
Thu 09:04:15 PM -21.1710 -53.6610 295° West 363 418 22,100 -1,714 Descending FlightAware ADS-B
Thu 09:04:55 PM -21.1430 -53.7260 295° West 355 409 21,000 -1,615 Descending FlightAware ADS-B
Thu 09:05:33 PM -21.1170 -53.7850 295° West 348 400 20,000 -1,538 Descending FlightAware ADS-B
Thu 09:06:13 PM -21.0900 -53.8480 295° West 340 391 19,000 -1,463 Descending FlightAware ADS-B
Thu 09:06:55 PM -21.0620 -53.9110 295° West 333 383 18,000 -1,390 Descending FlightAware ADS-B
Thu 09:07:35 PM -21.0360 -53.9710 295° West 327 376 17,100 -1,500 Descending FlightAware ADS-B
Thu 09:08:11 PM -21.0130 -54.0230 295° West 328 377 16,100 -1,575 Descending FlightAware ADS-B
Thu 09:08:55 PM -20.9840 -54.0880 296° West 327 376 15,000 -1,429 Descending FlightAware ADS-B
Thu 09:09:35 PM -20.9590 -54.1470 294° West 325 374 14,100 -1,357 Descending FlightAware ADS-B
Thu 09:10:19 PM -20.9310 -54.2100 295° West 321 369 13,100 -1,357 Descending FlightAware ADS-B
Thu 09:10:59 PM -20.9060 -54.2670 295° West 318 366 12,200 -1,357 Descending FlightAware ADS-B
Thu 09:11:43 PM -20.8780 -54.3290 296° West 313 360 11,200 -1,373 Descending FlightAware ADS-B
Thu 09:12:22 PM -20.8550 -54.3830 294° West 309 356 10,300 -1,147 Descending FlightAware ADS-B
Thu 09:12:51 PM -20.8370 -54.4230 296° West 296 341 9,900 -737 Descending FlightAware ADS-B
Thu 09:13:19 PM -20.8210 -54.4580 296° West 284 327 9,600 -1,071 Descending FlightAware ADS-B
Thu 09:13:47 PM -20.8050 -54.4950 295° West 282 325 8,900 -1,241 Descending FlightAware ADS-B
Thu 09:14:17 PM -20.7890 -54.5310 295° West 278 320 8,400 -1,241 Descending FlightAware ADS-B
Thu 09:14:45 PM -20.7730 -54.5670 295° West 275 316 7,700 -1,393 Descending FlightAware ADS-B
Thu 09:15:13 PM -20.7580 -54.6000 296° West 272 313 7,100 -1,385 Descending FlightAware ADS-B
Thu 09:15:37 PM -20.7450 -54.6300 295° West 269 310 6,500 -1,333 Descending FlightAware ADS-B
Thu 09:16:07 PM -20.7300 -54.6660 294° West 267 307 5,900 -1,345 Descending FlightAware ADS-B
Thu 09:16:35 PM -20.7150 -54.6990 296° West 263 303 5,200 -1,179 Descending FlightAware ADS-B
Thu 09:17:03 PM -20.7010 -54.7310 295° West 254 292 4,800 -429 Descending FlightAware ADS-B
Thu 09:17:31 PM -20.6810 -54.7570 309° West 222 255 4,800 -429 Level FlightAware ADS-B
Thu 09:17:59 PM -20.6570 -54.7710 331° Northwest 216 249 4,400 -1,071 Descending FlightAware ADS-B
Thu 09:18:27 PM -20.6320 -54.7850 332° Northwest 215 247 3,800 -857 Descending FlightAware ADS-B
Thu 09:18:55 PM -20.6080 -54.7960 337° Northwest 193 222 3,600 -214 Descending FlightAware ADS-B
Thu 09:19:23 PM -20.5860 -54.7850 25° Northeast 179 206 3,600  Level FlightAware ADS-B
Thu 09:19:46 PM -20.5730 -54.7740 38° Northeast 151 174 3,600  Level FlightAware ADS-B
Thu 09:20:15 PM -20.5590 -54.7600 43° Northeast 134 154 3,600 -211 Level FlightAware ADS-B
Thu 09:20:43 PM -20.5460 -54.7480 41° Northeast 134 154 3,400 -566 Descending FlightAware ADS-B
Thu 09:21:08 PM -20.5340 -54.7360 43° Northeast 135 155 3,100 -769 Descending FlightAware ADS-B
Thu 09:21:22 PM -20.5280 -54.7300 43° Northeast 134 154 2,900 -706 Descending FlightAware ADS-B
Thu 09:21:42 PM -20.5190 -54.7210 43° Northeast 133 153 2,700 -735 Descending FlightAware ADS-B
Thu 09:22:11 PM -20.5060 -54.7080 43° Northeast 133 153 2,300 -764 Descending FlightAware ADS-B
Thu 09:22:37 PM -20.4940 -54.6970 41° Northeast 133 153 2,000 -643 Descending FlightAware ADS-B
Thu 09:23:07 PM -20.4790 -54.6830 41° Northeast 134 154 1,700 -600 Descending FlightAware ADS-B
Thu 09:23:35 PM -20.4680 -54.6720 43° Northeast 80 92 -3,643 Descending FlightAware ADS-B
Thu 09:23:59 PM -20.4650 -54.6690 43° Northeast 33 38  Level FlightAware ADS-B
Thu 09:24:23 PM -20.4630 -54.6670 43° Northeast 22 25  Level FlightAware ADS-B
Thu 09:24:37 PM -20.4620 -54.6660 43° Northeast 30 35  Level FlightAware ADS-B
Thu 09:25:08 PM -20.4580 -54.6660 360° North 33 38  Level FlightAware ADS-B
Thu 09:27:00 PM -20.4687 -54.6725 210° Southwest  Level Estimated
Thu 09:28:00 PM -20.4687 -54.6725 343° North  Level Estimated
Thu 09:29:00 PM -20.4687 -54.6725 343° North  Level Estimated
Thu 09:30:00 PM -20.4687 -54.6725 343° North  Level Estimated
Thu 09:31:00 PM -20.4687 -54.6725 343° North  Level Estimated
Thu 09:32:00 PM -20.4687 -54.6725 343° North  Level Estimated
Thu 09:33:00 PM -20.4687 -54.6725 343° North  Level Estimated
Thu 09:34:00 PM -20.4687 -54.6725 343° North  Level Estimated
Thu 09:35:00 PM -20.4687 -54.6725 343° North  Level Estimated
Thu 09:36:00 PM -20.4687 -54.6725 343° North  Level Estimated
Thu 09:37:00 PM -20.4687 -54.6725 343° North  Level Estimated
Thu 09:38:00 PM -20.4687 -54.6725 343° North  Level Estimated
Thu 09:39:00 PM -20.4687 -54.6725 343° North  Level Estimated
Thu 09:40:00 PM -20.4687 -54.6725 343° North  Level Estimated
Thu 09:41:00 PM -20.4687 -54.6725 343° North  Level Estimated
Thu 09:42:00 PM -20.4687 -54.6725 343° North  Level Estimated
Thu 09:43:00 PM -20.4687 -54.6725 343° North  Level Estimated
Thu 09:44:00 PM -20.4687 -54.6725 343° North  Level Estimated
Thu 09:45:00 PM -20.4687 -54.6725 343° North  Level Estimated
Thu 09:46:00 PM -20.4687 -54.6725 343° North  Level Estimated
Thu 09:47:00 PM -20.4687 -54.6725 343° North  Level Estimated
Thu 09:48:00 PM -20.4687 -54.6725 343° North  Level Estimated
Thu 09:49:00 PM -20.4687 -54.6725 343° North  Level Estimated
Thu 09:50:00 PM -20.4687 -54.6725 343° North  Level Estimated

Login

Don't have an account? Register now (free) for customized features, flight alerts, and more!